createdAt,value
2019-05-19T00:01:03.968Z,33.10
2019-05-19T00:05:59.633Z,31.67
2019-05-19T00:10:55.210Z,35.80
2019-05-19T00:15:50.774Z,29.93
2019-05-19T00:20:46.800Z,30.13
2019-05-19T00:25:42.348Z,29.17
2019-05-19T00:30:37.950Z,32.13
2019-05-19T00:35:34.935Z,29.40
2019-05-19T00:40:30.434Z,27.80
2019-05-19T00:45:25.982Z,26.93
2019-05-19T00:50:21.486Z,27.53
2019-05-19T00:55:17.966Z,28.17
2019-05-19T01:00:13.659Z,28.57
2019-05-19T01:05:09.409Z,25.63
2019-05-19T01:10:05.625Z,21.80
2019-05-19T01:15:01.165Z,22.13
2019-05-19T01:19:57.825Z,24.57
2019-05-19T01:24:53.312Z,27.10
2019-05-19T01:29:48.805Z,28.20
2019-05-19T01:34:44.897Z,27.43
2019-05-19T01:39:40.382Z,24.37
2019-05-19T01:44:35.864Z,23.83
2019-05-19T01:49:31.358Z,21.33
2019-05-19T01:54:27.974Z,27.77
2019-05-19T01:59:23.465Z,29.47
2019-05-19T02:04:19.008Z,29.43
2019-05-19T02:09:14.573Z,26.67
2019-05-19T02:14:10.094Z,26.50
2019-05-19T02:19:12.510Z,24.67
2019-05-19T02:24:08.186Z,24.40
2019-05-19T02:29:07.553Z,22.20
2019-05-19T02:34:07.671Z,23.23
2019-05-19T02:39:08.137Z,23.33
2019-05-19T02:44:05.613Z,24.77
2019-05-19T02:49:02.862Z,24.07
2019-05-19T02:54:00.615Z,24.23
2019-05-19T02:58:57.440Z,25.53
2019-05-19T03:03:52.996Z,27.53
2019-05-19T03:08:48.537Z,26.73
2019-05-19T03:13:44.191Z,21.93
2019-05-19T03:18:39.660Z,26.93
2019-05-19T03:23:35.115Z,23.50
2019-05-19T03:28:30.623Z,22.87
2019-05-19T03:33:28.736Z,24.57
2019-05-19T03:38:24.801Z,22.87
2019-05-19T03:43:20.304Z,24.50
2019-05-19T03:48:15.789Z,24.57
2019-05-19T03:53:11.252Z,30.60
2019-05-19T03:58:06.722Z,25.33
2019-05-19T04:03:02.214Z,24.97
2019-05-19T04:07:57.701Z,24.33
2019-05-19T04:12:53.192Z,22.37
2019-05-19T04:17:48.674Z,22.03
2019-05-19T04:22:44.276Z,22.03
2019-05-19T04:27:39.857Z,22.17
2019-05-19T04:32:35.309Z,22.30
2019-05-19T04:37:30.883Z,22.10
2019-05-19T04:42:26.719Z,23.77
2019-05-19T04:47:22.186Z,21.87
2019-05-19T04:52:17.694Z,24.97
2019-05-19T04:57:17.418Z,20.27
2019-05-19T05:02:15.874Z,20.90
2019-05-19T05:07:11.398Z,21.57
2019-05-19T05:12:06.927Z,19.43
2019-05-19T05:17:03.505Z,18.90
2019-05-19T05:21:58.986Z,19.83
2019-05-19T05:26:54.554Z,20.17
2019-05-19T05:31:50.178Z,19.80
2019-05-19T05:36:45.719Z,18.53
2019-05-19T05:41:41.194Z,19.47
2019-05-19T05:46:36.676Z,20.00
2019-05-19T05:51:32.198Z,21.20
2019-05-19T05:56:27.738Z,19.23
2019-05-19T06:01:23.251Z,19.47
2019-05-19T06:06:18.817Z,16.17
2019-05-19T06:11:22.747Z,15.23
2019-05-19T06:16:39.442Z,16.60
2019-05-19T06:21:50.432Z,15.60
2019-05-19T06:26:45.912Z,12.63
2019-05-19T06:31:42.130Z,13.20
2019-05-19T06:36:37.687Z,11.60
2019-05-19T06:41:33.242Z,11.90
2019-05-19T06:46:28.847Z,13.67
2019-05-19T06:51:24.438Z,12.20
2019-05-19T06:56:19.986Z,13.73
2019-05-19T07:01:15.524Z,13.37
2019-05-19T07:06:11.080Z,13.83
2019-05-19T07:11:06.643Z,11.63
2019-05-19T07:16:02.175Z,12.57
2019-05-19T07:20:57.764Z,13.87
2019-05-19T07:25:53.733Z,11.40
2019-05-19T07:30:49.737Z,13.30
2019-05-19T07:35:45.381Z,14.87
2019-05-19T07:40:40.951Z,18.87
2019-05-19T07:45:36.642Z,19.57
2019-05-19T07:50:32.234Z,21.40
2019-05-19T07:55:27.959Z,20.33
2019-05-19T08:00:23.596Z,21.43
2019-05-19T08:05:19.134Z,20.93
2019-05-19T08:10:14.799Z,21.70
2019-05-19T08:15:11.423Z,23.43
2019-05-19T08:20:07.501Z,26.27
2019-05-19T08:25:04.579Z,25.73
2019-05-19T08:30:00.192Z,23.40
2019-05-19T08:34:55.731Z,22.80
2019-05-19T08:39:51.746Z,22.80
2019-05-19T08:44:48.287Z,25.23
2019-05-19T08:49:43.929Z,22.67
2019-05-19T08:54:39.462Z,22.40
2019-05-19T08:59:36.115Z,21.67
2019-05-19T09:04:31.671Z,21.87
2019-05-19T09:09:27.317Z,23.13
2019-05-19T09:14:23.020Z,24.60
2019-05-19T09:19:18.574Z,23.67
2019-05-19T09:24:29.301Z,24.00
2019-05-19T09:29:11.464Z,21.30
2019-05-19T09:34:07.099Z,20.47
2019-05-19T09:39:05.052Z,19.57
2019-05-19T09:44:00.709Z,18.63
2019-05-19T09:49:14.614Z,17.07
2019-05-19T09:54:10.351Z,16.23
2019-05-19T09:59:06.959Z,15.63
2019-05-19T10:04:02.588Z,18.00
2019-05-19T10:08:59.231Z,15.23
2019-05-19T10:13:55.631Z,15.53
2019-05-19T10:18:51.344Z,16.63
2019-05-19T10:23:46.943Z,17.23
2019-05-19T10:28:42.578Z,17.23
2019-05-19T10:33:38.282Z,17.00
2019-05-19T10:38:33.862Z,16.93
2019-05-19T10:43:29.423Z,17.80
2019-05-19T10:48:25.179Z,17.00
2019-05-19T10:53:20.806Z,15.97
2019-05-19T10:58:16.385Z,14.93
2019-05-19T11:03:12.082Z,13.90
2019-05-19T11:08:09.462Z,15.23
2019-05-19T11:13:05.207Z,14.00
2019-05-19T11:18:00.794Z,14.00
2019-05-19T11:22:56.910Z,14.93
2019-05-19T11:27:52.479Z,15.03
2019-05-19T11:32:48.482Z,15.07
2019-05-19T11:37:46.842Z,15.50
2019-05-19T11:42:42.465Z,14.70
2019-05-19T11:47:37.980Z,14.03
2019-05-19T11:52:33.610Z,14.73
2019-05-19T11:57:29.162Z,14.20
2019-05-19T12:02:24.726Z,14.07
2019-05-19T12:07:20.290Z,13.60
2019-05-19T12:12:15.842Z,14.10
2019-05-19T12:17:11.481Z,13.03
2019-05-19T12:22:07.004Z,13.50
2019-05-19T12:27:02.538Z,14.43
2019-05-19T12:31:58.066Z,13.90
2019-05-19T12:36:53.734Z,14.27
2019-05-19T12:41:49.295Z,13.87
2019-05-19T12:46:44.856Z,16.03
2019-05-19T12:51:40.561Z,22.40
2019-05-19T12:56:39.537Z,19.67
2019-05-19T13:01:33.534Z,19.23
2019-05-19T13:06:29.291Z,23.43
2019-05-19T13:11:25.048Z,26.90
2019-05-19T13:16:22.787Z,24.50
2019-05-19T13:21:20.306Z,19.67
2019-05-19T13:26:15.974Z,17.60
2019-05-19T13:31:11.818Z,15.23
2019-05-19T13:36:08.481Z,16.30
2019-05-19T13:41:04.914Z,19.73
2019-05-19T13:46:00.595Z,19.90
2019-05-19T13:50:56.287Z,36.40
2019-05-19T13:55:51.903Z,23.83
2019-05-19T14:00:47.662Z,20.23
2019-05-19T14:05:43.460Z,17.57
2019-05-19T14:10:39.027Z,14.77
2019-05-19T14:15:34.647Z,14.80
2019-05-19T14:20:30.199Z,13.70
2019-05-19T14:25:25.822Z,14.63
2019-05-19T14:30:21.402Z,13.77
2019-05-19T14:35:17.055Z,27.13
2019-05-19T14:40:13.748Z,9.50
2019-05-19T14:45:32.579Z,8.23
2019-05-19T14:50:28.295Z,7.67
2019-05-19T14:55:23.988Z,7.23
2019-05-19T15:00:21.135Z,6.90
2019-05-19T15:05:16.869Z,7.73
2019-05-19T15:10:12.583Z,9.07
2019-05-19T15:15:08.390Z,12.10
2019-05-19T15:20:07.912Z,11.40
2019-05-19T15:25:05.024Z,10.80
2019-05-19T15:30:12.448Z,11.83
2019-05-19T15:34:58.006Z,11.60
2019-05-19T15:39:53.711Z,12.93
2019-05-19T15:44:49.448Z,12.50
2019-05-19T15:49:45.108Z,12.13
2019-05-19T15:54:40.674Z,14.27
2019-05-19T15:59:36.297Z,11.57
2019-05-19T16:04:31.956Z,12.97
2019-05-19T16:09:27.548Z,16.33
2019-05-19T16:14:23.178Z,12.57
2019-05-19T16:19:18.752Z,13.60
2019-05-19T16:24:14.331Z,14.43
2019-05-19T16:29:09.958Z,12.47
2019-05-19T16:34:05.644Z,13.37
2019-05-19T16:44:16.311Z,13.20
2019-05-19T16:49:11.960Z,13.00
2019-05-19T16:54:12.068Z,13.27
2019-05-19T16:59:07.727Z,14.00
2019-05-19T17:04:25.419Z,15.00
2019-05-19T17:09:21.100Z,13.13
2019-05-19T17:14:16.683Z,13.23
2019-05-19T17:19:10.531Z,12.83
2019-05-19T17:24:06.162Z,13.30
2019-05-19T17:29:02.157Z,13.30
2019-05-19T17:33:58.659Z,14.00
2019-05-19T17:38:54.318Z,16.30
2019-05-19T17:43:50.057Z,13.83
2019-05-19T17:48:45.632Z,14.00
2019-05-19T17:53:41.651Z,14.07
2019-05-19T17:58:37.542Z,18.73
2019-05-19T18:03:35.501Z,19.37
2019-05-19T18:08:31.102Z,18.03
2019-05-19T18:13:48.415Z,20.07
2019-05-19T18:18:44.141Z,14.13
2019-05-19T18:23:41.071Z,12.30
2019-05-19T18:28:36.657Z,26.03
2019-05-19T18:33:33.554Z,20.27
2019-05-19T18:38:30.408Z,19.33
2019-05-19T18:43:26.413Z,18.67
2019-05-19T18:48:23.436Z,19.60
2019-05-19T18:53:21.214Z,31.67
2019-05-19T18:58:17.492Z,15.80
2019-05-19T19:03:13.906Z,20.20
2019-05-19T19:08:11.146Z,20.67
2019-05-19T19:13:12.264Z,17.13
2019-05-19T19:18:08.127Z,22.13
2019-05-19T19:23:09.488Z,15.73
2019-05-19T19:28:05.494Z,18.37
2019-05-19T19:33:01.821Z,20.43
2019-05-19T19:37:57.998Z,21.50
2019-05-19T19:42:54.393Z,17.87
2019-05-19T19:47:50.125Z,17.03
2019-05-19T19:52:47.291Z,17.70
2019-05-19T19:57:43.352Z,18.97
2019-05-19T20:02:39.467Z,23.03
2019-05-19T20:07:35.511Z,19.57
2019-05-19T20:12:34.043Z,16.97
2019-05-19T20:17:31.313Z,20.97
2019-05-19T20:22:27.827Z,18.67
2019-05-19T20:27:23.765Z,16.83
2019-05-19T20:32:19.620Z,16.63
2019-05-19T20:37:16.806Z,19.53
2019-05-19T20:42:12.997Z,18.27
2019-05-19T20:47:09.223Z,18.00
2019-05-19T20:52:05.178Z,18.43
2019-05-19T20:57:00.834Z,21.10
2019-05-19T21:01:56.391Z,17.97
2019-05-19T21:06:53.000Z,24.47
2019-05-19T21:11:48.543Z,17.50
2019-05-19T21:16:44.599Z,15.07
2019-05-19T21:22:02.595Z,14.23
2019-05-19T21:26:58.107Z,19.13
2019-05-19T21:31:53.662Z,16.07
2019-05-19T21:36:49.170Z,16.30
2019-05-19T21:41:44.726Z,13.77
2019-05-19T21:46:40.390Z,13.97
2019-05-19T21:51:35.930Z,14.17
2019-05-19T21:56:31.495Z,13.30
2019-05-19T22:01:27.090Z,15.03
2019-05-19T22:06:24.318Z,12.93
2019-05-19T22:11:19.889Z,11.53
2019-05-19T22:16:15.472Z,11.30
2019-05-19T22:21:11.053Z,10.53
2019-05-19T22:26:06.550Z,10.83
2019-05-19T22:31:06.358Z,10.20
2019-05-19T22:36:01.975Z,7.03
2019-05-19T22:40:57.482Z,6.83
2019-05-19T22:45:53.055Z,5.87
2019-05-19T22:50:48.588Z,7.70
2019-05-19T22:55:45.256Z,7.33
2019-05-19T23:00:40.841Z,5.60
2019-05-19T23:05:36.447Z,5.23
2019-05-19T23:10:32.063Z,5.63
2019-05-19T23:15:27.671Z,4.37
2019-05-19T23:20:23.514Z,5.43
2019-05-19T23:25:19.169Z,5.47
2019-05-19T23:30:14.893Z,4.50
2019-05-19T23:35:10.505Z,4.10
2019-05-19T23:40:06.399Z,4.80
2019-05-19T23:45:01.940Z,4.17
2019-05-19T23:49:58.652Z,4.20
2019-05-19T23:54:54.223Z,5.73
2019-05-19T23:59:49.785Z,6.63
